Upper Lake, California
Current Conditions -  °F | °C
As of 7:56 AM on Saturday 20 Dec 2014 (Local Time) from KUKI Reporting Station
Light Rain Light Rain  
Wind Chill: 51°   Ceiling: 2800
Heat Index: 51°   Visibility: 2mi
Dew Point: 50°   Wind: 0mph
Humidity: 96%   Direction: NA
Pressure: 30.15"   Gusts: NA
Location:  39.16°N, 122.91°W
Report Text: KUKI 201556Z AUTO 00000KT 2SM -RA BR SCT015 BKN028 OVC036 11/10 A3015 RMK AO2 SLP208 P0005 T01060100
Loading
Personal Weather Stations






























Interactive Weather Map New forecast layout! Learn more

10-Day Weather Forecast

Advertisements
Track Severe Weather on mobile